Time;durP1;ratioP1;P1;durP2;ratioP2;P2;SDS_P1;SDS_P2;PMS_P1;PMS_P2;Temp;Humidity;BMP_temperature;BMP_pressure;BME280_temperature;BME280_humidity;BME280_pressure;Samples;Min_cycle;Max_cycle;Signal;HPM_P1;HPM_P2
2022/03/27 00:00:38;;;;;;;15.80;10.07;;;;;;;13.01;33.36;100074.41;5069554;28;20041;-69
2022/03/27 00:03:11;;;;;;;17.17;11.40;;;;;;;13.62;33.73;100202.44;5085849;28;20780;-69
2022/03/27 00:05:44;;;;;;;17.17;12.23;;;;;;;13.61;33.56;100198.06;5069149;28;20044;-69
2022/03/27 00:08:16;;;;;;;15.30;11.15;;;;;;;13.62;34.01;100205.09;5068874;28;20082;-69
2022/03/27 00:13:39;;;;;;;12.23;8.80;;;;;;;13.60;34.20;100203.47;5086303;28;20303;-69
2022/03/27 00:16:12;;;;;;;13.50;9.55;;;;;;;13.20;34.21;100138.16;5086142;28;20125;-70
2022/03/27 00:18:44;;;;;;;19.38;10.23;;;;;;;12.26;34.17;99998.59;5086335;28;20100;-70
2022/03/27 00:21:16;;;;;;;14.05;10.50;;;;;;;13.52;34.21;100206.56;5086326;28;20181;-69
2022/03/27 00:23:49;;;;;;;14.68;10.07;;;;;;;12.28;34.71;100002.03;5068844;28;20288;-69
2022/03/27 00:26:22;;;;;;;20.25;9.75;;;;;;;13.49;34.60;100209.38;5085898;28;20041;-69
2022/03/27 00:28:55;;;;;;;16.88;11.25;;;;;;;13.43;34.58;100210.56;5085990;28;20051;-69
2022/03/27 00:31:28;;;;;;;16.13;10.68;;;;;;;13.37;34.92;100202.88;5086065;28;20096;-68
2022/03/27 00:33:58;;;;;;;14.52;10.30;;;;;;;13.37;35.19;100210.84;5085969;28;20048;-69
2022/03/27 00:36:28;;;;;;;13.93;9.82;;;;;;;12.86;35.05;100113.34;5068375;28;20044;-69
2022/03/27 00:38:58;;;;;;;13.80;10.45;;;;;;;13.42;35.22;100202.66;5068535;28;20047;-69
2022/03/27 00:41:30;;;;;;;15.88;10.38;;;;;;;13.35;35.19;100206.56;5068767;28;20063;-69
2022/03/27 00:44:03;;;;;;;14.25;10.23;;;;;;;13.13;35.61;100170.44;5069243;28;20093;-69
2022/03/27 00:46:34;;;;;;;17.73;10.20;;;;;;;13.33;35.34;100203.97;5085901;28;20253;-69
2022/03/27 00:49:04;;;;;;;13.32;10.20;;;;;;;13.37;35.52;100210.00;5069136;28;20193;-69
2022/03/27 00:51:34;;;;;;;16.27;9.73;;;;;;;12.58;35.66;100118.38;5085025;28;20036;-68
2022/03/27 00:54:05;;;;;;;13.73;10.27;;;;;;;13.38;35.52;100211.72;5086219;28;20371;-69
2022/03/27 00:56:34;;;;;;;17.90;11.00;;;;;;;13.06;36.26;100158.38;5085605;28;20062;-69
2022/03/27 00:59:05;;;;;;;13.82;9.57;;;;;;;13.39;36.53;100208.97;5085862;28;20071;-69
2022/03/27 01:01:36;;;;;;;14.32;10.13;;;;;;;13.42;36.02;100214.16;5067806;28;20044;-69
2022/03/27 01:04:05;;;;;;;23.08;16.98;;;;;;;13.19;36.09;100171.91;5085802;28;20060;-69
2022/03/27 01:06:38;;;;;;;30.92;19.30;;;;;;;13.38;37.35;100212.56;5068373;28;20033;-68
2022/03/27 01:12:13;;;;;;;17.30;13.52;;;;;;;13.31;37.40;100210.31;5085705;28;20275;-69
2022/03/27 01:14:47;;;;;;;13.70;11.68;;;;;;;13.15;36.36;100210.28;5088227;28;20098;-69
2022/03/27 01:17:23;;;;;;;16.47;13.03;;;;;;;13.00;36.63;100211.06;5089497;28;20197;-69
2022/03/27 01:19:57;;;;;;;19.55;13.48;;;;;;;12.07;36.42;100064.22;5089401;28;20243;-69
2022/03/27 01:22:30;;;;;;;21.35;14.38;;;;;;;12.51;36.72;100158.56;5089680;28;20082;-69
2022/03/27 01:25:02;;;;;;;20.30;13.68;;;;;;;12.36;36.58;100140.72;5088384;28;20048;-69
2022/03/27 01:27:35;;;;;;;22.63;15.43;;;;;;;12.82;36.32;100215.53;5089278;28;20188;-68
2022/03/27 01:30:10;;;;;;;22.38;15.18;;;;;;;12.68;36.21;100197.59;5089475;28;20086;-69
2022/03/27 01:32:42;;;;;;;19.65;14.45;;;;;;;12.71;36.63;100216.06;5071645;28;20043;-68
2022/03/27 01:35:14;;;;;;;19.45;14.95;;;;;;;12.12;36.72;100112.69;5089439;28;20254;-69
2022/03/27 01:37:49;;;;;;;24.35;15.50;;;;;;;12.39;36.67;100167.16;5089283;28;20090;-69
2022/03/27 01:40:21;;;;;;;20.85;14.48;;;;;;;12.29;36.75;100151.75;5089001;28;20036;-68
2022/03/27 01:42:55;;;;;;;20.65;15.15;;;;;;;12.56;37.19;100210.66;5071810;28;20044;-68
2022/03/27 01:45:28;;;;;;;21.05;16.58;;;;;;;11.26;36.90;100059.31;5071735;28;20047;-69
2022/03/27 01:48:00;;;;;;;23.98;17.52;;;;;;;12.50;36.48;100212.69;5088869;28;20040;-69
2022/03/27 01:50:33;;;;;;;23.98;17.15;;;;;;;12.49;36.38;100218.94;5089130;28;20040;-68
2022/03/27 01:53:06;;;;;;;24.60;17.52;;;;;;;12.36;36.60;100220.47;5088743;28;20041;-68
2022/03/27 01:55:39;;;;;;;23.08;18.33;;;;;;;12.33;36.76;100220.63;5088714;28;20204;-68
2022/03/27 01:58:11;;;;;;;22.35;17.38;;;;;;;12.17;36.58;100180.63;5087939;28;20051;-68
2022/03/27 02:00:43;;;;;;;25.98;18.38;;;;;;;11.47;36.44;100075.06;5088949;28;20235;-68
2022/03/27 02:03:16;;;;;;;25.95;18.02;;;;;;;12.57;36.72;100228.34;5088316;28;20275;-68
2022/03/27 02:05:48;;;;;;;25.02;17.85;;;;;;;12.58;36.36;100238.03;5088515;28;20041;-69
2022/03/27 02:08:23;;;;;;;23.17;18.15;;;;;;;11.66;36.61;100067.09;5071288;28;20047;-69
2022/03/27 02:10:55;;;;;;;23.17;19.15;;;;;;;12.62;36.31;100243.13;5088447;28;20044;-68
2022/03/27 02:13:27;;;;;;;21.77;17.80;;;;;;;12.59;36.24;100243.28;5088384;28;20048;-69
2022/03/27 02:16:00;;;;;;;20.65;16.00;;;;;;;12.33;36.31;100207.34;5088653;28;20090;-69
2022/03/27 02:18:33;;;;;;;21.63;16.65;;;;;;;12.58;36.36;100251.31;5088606;28;20284;-68
2022/03/27 02:21:05;;;;;;;24.02;16.30;;;;;;;12.26;36.54;100197.94;5087571;28;20041;-69
2022/03/27 02:23:39;;;;;;;27.20;16.75;;;;;;;12.60;36.73;100254.78;5088231;28;20036;-69
2022/03/27 02:26:12;;;;;;;20.75;16.35;;;;;;;12.57;36.67;100257.59;5087763;28;20042;-68
2022/03/27 02:28:44;;;;;;;20.15;16.55;;;;;;;12.33;36.83;100215.31;5070730;28;20292;-69
2022/03/27 02:31:19;;;;;;;21.05;15.68;;;;;;;12.60;36.79;100257.44;5088274;28;20231;-69
2022/03/27 02:33:51;;;;;;;18.17;14.38;;;;;;;12.06;37.12;100184.72;5088307;28;20086;-69
2022/03/27 02:36:23;;;;;;;17.50;13.93;;;;;;;12.04;37.46;100186.59;5088006;28;20051;-68
2022/03/27 02:38:57;;;;;;;22.02;15.63;;;;;;;12.50;37.53;100284.47;5087877;28;20047;-69
2022/03/27 02:41:29;;;;;;;22.20;14.38;;;;;;;12.51;37.48;100282.66;5087885;28;20051;-69
2022/03/27 02:43:59;;;;;;;20.02;16.70;;;;;;;12.47;37.81;100289.94;5087870;28;20326;-69
2022/03/27 02:46:29;;;;;;;16.90;12.52;;;;;;;12.52;37.78;100295.91;5087971;28;20289;-69
2022/03/27 02:48:59;;;;;;;22.85;14.27;;;;;;;12.58;37.42;100289.41;5070257;28;20181;-69
2022/03/27 02:51:29;;;;;;;20.58;14.05;;;;;;;12.40;37.38;100261.06;5087722;28;20212;-68
2022/03/27 02:54:02;;;;;;;19.55;14.23;;;;;;;12.56;37.93;100288.63;5087917;28;20285;-69
2022/03/27 02:56:30;;;;;;;20.38;15.13;;;;;;;12.34;37.57;100254.25;5069904;28;20248;-69
2022/03/27 02:59:00;;;;;;;20.67;15.27;;;;;;;12.50;37.83;100291.59;5087777;28;20115;-69
2022/03/27 03:01:30;;;;;;;22.35;14.25;;;;;;;12.54;37.79;100297.63;5087654;28;20300;-69
2022/03/27 03:04:02;;;;;;;18.17;13.93;;;;;;;12.64;37.56;100304.22;5087393;28;20123;-69
2022/03/27 03:06:32;;;;;;;20.58;14.93;;;;;;;12.67;37.90;100304.06;5086543;28;20036;-69
2022/03/27 03:09:02;;;;;;;20.83;14.85;;;;;;;12.46;38.12;100263.41;5087567;28;20059;-69
2022/03/27 03:11:31;;;;;;;22.17;15.20;;;;;;;12.72;37.94;100313.53;5087045;28;20102;-69
2022/03/27 03:14:01;;;;;;;20.42;14.05;;;;;;;12.32;38.27;100248.13;5087291;28;20036;-69
2022/03/27 03:16:33;;;;;;;16.77;12.98;;;;;;;11.51;38.47;100160.72;5087473;28;20051;-69
2022/03/27 03:19:01;;;;;;;15.95;13.20;;;;;;;12.43;39.83;100317.59;5087228;28;20056;-69
2022/03/27 03:21:31;;;;;;;17.67;14.80;;;;;;;12.28;40.20;100328.09;5087382;28;20052;-68
2022/03/27 03:24:03;;;;;;;19.13;13.88;;;;;;;12.04;40.45;100292.88;5087351;28;20345;-69
2022/03/27 03:26:31;;;;;;;16.98;13.82;;;;;;;12.34;40.60;100334.00;5086409;28;20048;-69
2022/03/27 03:29:01;;;;;;;20.15;12.95;;;;;;;12.16;41.00;100329.50;5087215;28;20040;-69
2022/03/27 03:31:31;;;;;;;19.77;13.55;;;;;;;12.12;40.78;100341.19;5087424;28;20029;-69
2022/03/27 03:34:01;;;;;;;15.80;11.95;;;;;;;12.16;40.39;100343.69;5086830;28;20045;-69
2022/03/27 03:36:32;;;;;;;16.50;12.48;;;;;;;12.12;40.99;100341.19;5085940;28;20037;-68
2022/03/27 03:39:04;;;;;;;16.25;12.52;;;;;;;10.83;40.75;100154.06;5086956;28;20039;-68
2022/03/27 03:41:32;;;;;;;19.80;12.02;;;;;;;12.13;40.94;100351.75;5087106;28;20036;-68
2022/03/27 03:44:03;;;;;;;18.08;12.18;;;;;;;11.86;41.35;100316.66;5086956;28;20040;-68
2022/03/27 03:46:33;;;;;;;17.83;12.88;;;;;;;12.03;40.97;100357.56;5086874;28;20048;-68
2022/03/27 03:49:06;;;;;;;17.88;12.65;;;;;;;10.86;41.28;100175.16;5086683;28;20047;-68
2022/03/27 03:51:38;;;;;;;17.20;12.63;;;;;;;11.94;41.00;100352.63;5086709;28;20036;-69
2022/03/27 03:54:10;;;;;;;17.45;11.90;;;;;;;10.92;41.15;100172.25;5086701;28;20100;-68
2022/03/27 03:56:39;;;;;;;14.88;10.98;;;;;;;11.89;41.76;100360.81;5086365;28;20238;-68
2022/03/27 03:59:09;;;;;;;15.85;11.70;;;;;;;11.94;41.89;100357.94;5086293;28;20051;-68
2022/03/27 04:01:39;;;;;;;13.77;9.93;;;;;;;11.92;41.76;100370.44;5086075;28;20099;-69
2022/03/27 04:04:10;;;;;;;12.57;9.38;;;;;;;11.92;42.03;100371.28;5086554;28;20264;-68
2022/03/27 04:06:40;;;;;;;12.13;8.10;;;;;;;11.89;42.21;100401.50;5086100;28;20052;-69
2022/03/27 04:09:12;;;;;;;14.70;9.55;;;;;;;10.89;43.02;100220.09;5086195;28;20104;-69
2022/03/27 04:11:40;;;;;;;11.73;8.52;;;;;;;12.02;42.94;100369.97;5086491;28;20036;-69
2022/03/27 04:14:11;;;;;;;13.88;9.85;;;;;;;11.69;42.75;100337.78;5086017;28;20040;-68
2022/03/27 04:16:41;;;;;;;12.45;8.52;;;;;;;12.02;42.66;100388.59;5068961;28;20044;-69
2022/03/27 04:19:13;;;;;;;9.88;7.80;;;;;;;12.05;42.84;100391.09;5068893;28;20048;-69
2022/03/27 04:21:42;;;;;;;11.40;8.25;;;;;;;12.08;42.57;100390.09;5086160;28;20203;-68
2022/03/27 04:24:13;;;;;;;9.73;7.35;;;;;;;12.14;42.85;100396.00;5086412;28;20086;-68
2022/03/27 04:26:42;;;;;;;10.70;7.15;;;;;;;12.11;43.81;100395.28;5086127;28;20104;-68
2022/03/27 04:29:12;;;;;;;9.82;7.70;;;;;;;12.07;43.44;100406.97;5086073;28;20243;-68
2022/03/27 04:31:43;;;;;;;11.65;7.97;;;;;;;11.91;43.89;100403.25;5068288;28;20090;-69
2022/03/27 04:34:13;;;;;;;15.73;8.38;;;;;;;11.79;44.91;100407.28;5086088;28;20043;-69
2022/03/27 04:36:43;;;;;;;9.70;6.47;;;;;;;11.82;44.09;100401.84;5068322;28;20286;-69
2022/03/27 04:39:15;;;;;;;10.98;6.82;;;;;;;11.56;45.01;100352.53;5068509;28;20090;-68
2022/03/27 04:41:44;;;;;;;11.55;6.88;;;;;;;11.92;44.32;100403.16;5085897;28;20047;-69
2022/03/27 04:44:14;;;;;;;10.73;6.82;;;;;;;11.95;44.06;100399.50;5085922;28;20293;-68
2022/03/27 04:46:44;;;;;;;8.77;6.70;;;;;;;11.94;43.83;100397.78;5068099;28;20040;-69
2022/03/27 04:49:14;;;;;;;7.75;6.95;;;;;;;11.97;44.06;100402.97;5067907;28;20086;-69
2022/03/27 04:51:44;;;;;;;8.50;6.95;;;;;;;11.72;44.87;100355.38;5085489;28;20292;-69
2022/03/27 04:54:16;;;;;;;11.63;7.85;;;;;;;11.91;44.83;100403.25;5085517;28;20040;-69
2022/03/27 04:56:45;;;;;;;11.10;7.63;;;;;;;10.92;44.65;100267.72;5085515;28;20040;-69
2022/03/27 04:59:15;;;;;;;8.55;6.97;;;;;;;11.91;44.26;100405.91;5068224;28;20100;-68
2022/03/27 05:01:46;;;;;;;8.52;6.90;;;;;;;11.92;44.14;100403.16;5084999;28;20064;-68
2022/03/27 05:04:16;;;;;;;11.07;6.78;;;;;;;11.84;46.28;100414.13;5085464;28;20044;-68
2022/03/27 05:06:46;;;;;;;10.05;6.90;;;;;;;11.40;44.68;100354.97;5085726;28;20036;-69
2022/03/27 05:09:19;;;;;;;8.50;6.05;;;;;;;11.76;46.03;100426.00;5068284;28;20285;-68
2022/03/27 05:11:47;;;;;;;8.77;6.55;;;;;;;11.76;45.35;100421.56;5067652;28;20220;-69
2022/03/27 05:14:17;;;;;;;9.02;7.30;;;;;;;11.78;44.89;100427.69;5085611;28;20048;-68
2022/03/27 05:16:47;;;;;;;8.25;6.75;;;;;;;11.43;44.49;100368.13;5067899;28;20305;-68
2022/03/27 05:19:18;;;;;;;10.85;7.90;;;;;;;11.86;44.66;100424.69;5085310;28;20055;-68
2022/03/27 05:21:47;;;;;;;7.72;6.05;;;;;;;11.89;44.42;100424.56;5085651;28;20040;-69
2022/03/27 05:24:19;;;;;;;11.45;7.82;;;;;;;11.88;44.38;100430.78;5085588;28;20041;-68
2022/03/27 05:26:48;;;;;;;11.15;7.20;;;;;;;11.51;44.71;100373.09;5085165;28;20224;-68
2022/03/27 05:29:18;;;;;;;8.38;6.43;;;;;;;11.86;44.39;100435.31;5085185;28;20086;-68
2022/03/27 05:31:49;;;;;;;9.60;7.15;;;;;;;11.82;44.94;100442.56;5085598;28;20281;-68
2022/03/27 05:34:19;;;;;;;11.85;8.43;;;;;;;11.83;44.78;100438.97;5068077;28;20350;-69
2022/03/27 05:36:49;;;;;;;7.95;6.47;;;;;;;11.38;44.24;100354.19;5067578;28;20107;-68
2022/03/27 05:39:21;;;;;;;10.25;7.20;;;;;;;11.22;45.01;100390.25;5068118;28;20273;-69
2022/03/27 05:41:50;;;;;;;9.95;7.28;;;;;;;10.58;44.70;100255.81;5067655;28;20048;-70
2022/03/27 05:44:20;;;;;;;8.00;5.93;;;;;;;11.74;44.63;100449.97;5051043;28;20265;-69
2022/03/27 05:46:50;;;;;;;8.90;7.15;;;;;;;11.77;44.48;100471.09;5084958;28;20056;-69
2022/03/27 05:49:21;;;;;;;8.75;6.80;;;;;;;11.80;44.91;100463.00;5085324;28;20289;-69
2022/03/27 05:51:51;;;;;;;9.77;6.60;;;;;;;11.60;44.40;100439.09;5085575;28;20036;-69
2022/03/27 05:54:23;;;;;;;11.00;7.50;;;;;;;11.85;44.39;100481.41;5068347;28;20240;-69
2022/03/27 05:56:52;;;;;;;9.30;7.03;;;;;;;11.18;44.58;100360.34;5085111;28;20048;-69
2022/03/27 05:59:23;;;;;;;8.43;6.78;;;;;;;9.92;44.88;100154.31;5085958;28;20041;-68
2022/03/27 06:01:52;;;;;;;8.68;6.47;;;;;;;9.72;44.18;100143.63;5088616;28;20095;-70
2022/03/27 06:04:22;;;;;;;9.07;6.40;;;;;;;11.80;44.52;100478.94;5088902;28;20097;-70
2022/03/27 06:06:53;;;;;;;11.07;7.90;;;;;;;11.80;44.44;100480.72;5071811;28;20100;-69
2022/03/27 06:09:24;;;;;;;12.35;8.27;;;;;;;11.75;44.69;100486.22;5054302;28;20091;-68
2022/03/27 06:11:52;;;;;;;8.23;6.53;;;;;;;11.77;44.57;100487.03;5088525;28;20040;-68
2022/03/27 06:14:23;;;;;;;8.93;6.35;;;;;;;11.54;44.69;100447.31;5088752;28;20043;-67
2022/03/27 06:16:53;;;;;;;10.07;7.47;;;;;;;11.72;44.99;100517.38;5088843;28;20035;-67
2022/03/27 06:19:23;;;;;;;10.20;7.60;;;;;;;11.80;44.55;100492.22;5070969;28;20046;-67
2022/03/27 06:21:55;;;;;;;11.07;7.53;;;;;;;11.58;44.17;100435.63;5070862;28;20036;-70
2022/03/27 06:24:25;;;;;;;11.48;7.22;;;;;;;11.67;44.40;100450.31;5071026;28;20044;-68
2022/03/27 06:26:54;;;;;;;11.10;6.50;;;;;;;11.84;44.02;100491.16;5071554;28;20125;-69
2022/03/27 06:29:23;;;;;;;8.70;6.35;;;;;;;11.84;44.14;100496.47;5088242;28;20227;-68
2022/03/27 06:31:55;;;;;;;7.57;6.38;;;;;;;11.49;43.97;100439.53;5088282;28;20041;-68
2022/03/27 06:34:26;;;;;;;8.55;6.32;;;;;;;11.87;43.86;100496.34;5071076;28;20048;-68
2022/03/27 06:36:55;;;;;;;8.27;6.30;;;;;;;11.71;43.99;100452.78;5088465;28;20287;-69
2022/03/27 06:39:27;;;;;;;9.13;7.68;;;;;;;11.81;44.50;100495.75;5070830;28;20041;-68
2022/03/27 06:41:55;;;;;;;7.72;6.55;;;;;;;11.54;44.14;100444.66;5071164;28;20090;-69
2022/03/27 06:44:26;;;;;;;7.65;5.50;;;;;;;11.87;43.88;100496.34;5088048;28;20041;-69
2022/03/27 06:46:56;;;;;;;18.45;8.60;;;;;;;11.93;43.86;100497.00;5070458;28;20040;-69
2022/03/27 06:49:26;;;;;;;8.40;5.80;;;;;;;11.89;43.83;100501.59;5087826;28;20060;-68
2022/03/27 06:51:56;;;;;;;8.80;5.85;;;;;;;11.69;43.65;100456.41;5087836;28;20071;-68
2022/03/27 06:54:29;;;;;;;8.10;6.03;;;;;;;12.01;43.57;100489.59;5088093;28;20040;-68
2022/03/27 06:56:57;;;;;;;9.75;7.60;;;;;;;12.07;43.40;100499.97;5070055;28;20072;-68
2022/03/27 06:59:26;;;;;;;10.02;6.80;;;;;;;11.32;43.17;100361.53;5070204;28;20090;-68
2022/03/27 07:04:51;;;;;;;9.65;7.15;;;;;;;12.04;43.13;100500.09;5068099;28;20049;-69
2022/03/27 07:07:24;;;;;;;9.10;5.95;;;;;;;11.77;43.22;100462.28;5068045;28;20044;-69
2022/03/27 07:09:59;;;;;;;7.78;6.75;;;;;;;11.99;43.48;100534.81;5068456;28;20114;-69
2022/03/27 07:12:32;;;;;;;;;;;;;;;11.92;44.61;100506.78;5067888;28;20230;-70
2022/03/27 07:15:06;;;;;;;8.68;6.40;;;;;;;11.90;43.35;100508.63;5067406;28;19916;-69
2022/03/27 07:17:45;;;;;;;8.23;6.27;;;;;;;11.97;44.03;100514.56;5068454;28;20107;-69
2022/03/27 07:20:24;;;;;;;8.52;6.25;;;;;;;10.38;43.60;100239.88;5050399;28;20044;-69
2022/03/27 07:23:01;;;;;;;10.05;7.07;;;;;;;11.99;43.37;100518.88;5067135;28;20324;-69
2022/03/27 07:25:36;;;;;;;9.80;6.68;;;;;;;11.86;44.06;100534.47;5050072;28;20075;-69
2022/03/27 07:28:11;;;;;;;8.18;6.50;;;;;;;11.90;43.35;100529.88;5067059;28;20045;-70
2022/03/27 07:30:45;;;;;;;9.43;5.88;;;;;;;10.82;43.29;100327.38;5067228;28;20251;-68
2022/03/27 07:33:19;;;;;;;10.82;7.15;;;;;;;12.03;43.22;100555.03;5066730;28;20040;-69
2022/03/27 07:35:52;;;;;;;9.00;6.95;;;;;;;9.84;43.20;100219.06;5050023;28;20045;-69
2022/03/27 07:38:25;;;;;;;10.88;7.13;;;;;;;11.69;43.06;100521.00;5067339;28;20059;-69
2022/03/27 07:41:00;;;;;;;7.70;6.70;;;;;;;11.67;43.35;100491.00;5066609;28;20316;-69
2022/03/27 07:43:32;;;;;;;8.25;6.55;;;;;;;11.91;43.55;100528.94;5066028;28;20060;-69
2022/03/27 07:46:05;;;;;;;10.43;7.90;;;;;;;11.97;43.24;100527.84;5065631;28;20055;-68
2022/03/27 07:48:38;;;;;;;8.48;6.55;;;;;;;12.08;43.20;100539.75;5066114;28;20041;-69
2022/03/27 07:51:11;;;;;;;9.88;7.65;;;;;;;12.20;43.31;100535.75;5066971;28;20070;-69
2022/03/27 07:53:45;;;;;;;8.88;7.07;;;;;;;12.15;43.00;100535.91;5049238;28;20065;-68
2022/03/27 07:56:21;;;;;;;9.57;7.13;;;;;;;12.23;43.10;100540.94;5049426;28;20045;-69
2022/03/27 07:58:54;;;;;;;9.40;7.03;;;;;;;12.02;43.01;100504.63;5065810;28;20304;-69
2022/03/27 08:01:28;;;;;;;9.95;6.95;;;;;;;11.92;43.38;100501.47;5049282;28;20052;-69
2022/03/27 08:04:01;;;;;;;10.20;7.05;;;;;;;12.19;43.48;100531.38;5065736;28;20317;-68
2022/03/27 08:06:36;;;;;;;11.35;6.47;;;;;;;12.19;43.03;100540.19;5049129;28;20044;-69
2022/03/27 08:09:10;;;;;;;9.07;7.47;;;;;;;12.22;42.88;100530.38;5032781;28;20053;-69
2022/03/27 08:11:45;;;;;;;9.93;7.10;;;;;;;12.23;43.30;100522.34;5048932;28;20346;-69
2022/03/27 08:14:19;;;;;;;9.50;7.93;;;;;;;12.34;42.94;100522.72;5065828;28;20060;-68
2022/03/27 08:16:52;;;;;;;9.02;6.82;;;;;;;12.42;43.20;100523.25;5066259;28;20086;-69
2022/03/27 08:19:24;;;;;;;8.23;6.13;;;;;;;12.22;42.89;100491.38;5066223;28;20091;-69
2022/03/27 08:21:58;;;;;;;9.63;7.03;;;;;;;12.58;43.10;100522.56;5065703;28;20063;-69
2022/03/27 08:24:30;;;;;;;10.43;7.78;;;;;;;12.03;42.72;100448.75;5065786;28;20104;-69
2022/03/27 08:27:03;;;;;;;10.02;7.03;;;;;;;12.73;42.53;100532.50;5065307;28;20087;-70
2022/03/27 08:29:33;;;;;;;10.45;7.05;;;;;;;12.50;42.36;100480.38;5065050;28;20041;-69
2022/03/27 08:32:03;;;;;;;8.40;6.60;;;;;;;12.79;42.67;100526.91;5048466;28;20147;-69
2022/03/27 08:34:34;;;;;;;8.88;7.03;;;;;;;12.22;42.67;100419.59;5065832;28;20168;-69
2022/03/27 08:37:09;;;;;;;10.18;7.03;;;;;;;12.60;42.64;100476.34;5065088;28;20063;-69
2022/03/27 08:39:39;;;;;;;11.25;7.90;;;;;;;12.71;42.82;100527.25;5066188;28;20049;-69
2022/03/27 08:42:09;;;;;;;8.23;7.32;;;;;;;10.95;43.01;100264.94;5048367;28;20053;-69
2022/03/27 08:44:38;;;;;;;9.18;7.38;;;;;;;12.74;42.77;100528.91;5048333;28;20055;-69
2022/03/27 08:47:16;;;;;;;10.25;7.47;;;;;;;12.80;43.28;100526.84;5048304;28;20107;-69
2022/03/27 08:49:55;;;;;;;8.25;6.65;;;;;;;12.91;42.72;100528.16;5064689;28;20057;-69
2022/03/27 08:52:40;;;;;;;9.35;7.18;;;;;;;11.83;42.98;100331.84;5048010;28;20108;-69
2022/03/27 08:55:18;;;;;;;7.88;6.63;;;;;;;13.05;42.98;100523.91;5064995;28;20308;-69
2022/03/27 08:57:57;;;;;;;11.00;7.70;;;;;;;10.46;43.05;100076.09;5065923;28;20037;-69
2022/03/27 09:00:33;;;;;;;8.32;6.60;;;;;;;13.26;42.26;100531.81;5065113;28;20043;-70
2022/03/27 09:03:07;;;;;;;11.82;7.70;;;;;;;13.39;42.14;100618.16;5064321;28;20052;-70
2022/03/27 09:05:40;;;;;;;11.57;8.07;;;;;;;12.91;42.08;100449.19;5064649;28;20094;-69
2022/03/27 09:08:16;;;;;;;8.98;7.22;;;;;;;13.51;42.21;100539.53;5064919;28;20040;-70
2022/03/27 09:10:48;;;;;;;11.57;8.07;;;;;;;12.95;42.06;100425.97;5048889;28;20044;-70
2022/03/27 09:13:24;;;;;;;14.50;11.68;;;;;;;13.59;42.28;100532.03;5065569;28;20288;-69
2022/03/27 09:16:01;;;;;;;11.52;8.70;;;;;;;13.65;42.28;100529.91;5064841;28;20041;-70
2022/03/27 09:18:45;;;;;;;11.10;8.15;;;;;;;13.44;42.55;100483.03;5047671;28;20067;-70
2022/03/27 09:21:20;;;;;;;11.60;8.20;;;;;;;13.67;41.99;100551.16;5047900;28;20316;-67
2022/03/27 09:23:53;;;;;;;;;;;;;;;13.56;42.21;100542.81;5065395;28;20104;-67
2022/03/27 09:26:27;;;;;;;13.40;9.00;;;;;;;13.62;41.61;100561.19;5064708;28;19928;-69
2022/03/27 09:29:10;;;;;;;13.10;9.43;;;;;;;13.31;41.95;100513.81;5064748;28;20090;-69
2022/03/27 09:31:43;;;;;;;10.88;8.98;;;;;;;13.53;41.14;100506.56;5064159;28;20065;-69
2022/03/27 09:34:19;;;;;;;17.50;12.85;;;;;;;13.86;41.22;100532.47;5065304;28;20041;-69
2022/03/27 09:36:52;;;;;;;13.65;11.45;;;;;;;13.93;40.93;100536.53;5068945;28;20048;-69
2022/03/27 09:39:25;;;;;;;13.93;9.60;;;;;;;13.58;40.95;100490.34;5069142;28;20047;-69
2022/03/27 09:42:00;;;;;;;13.27;10.05;;;;;;;13.58;41.45;100532.97;5068685;28;20048;-69
2022/03/27 09:44:36;;;;;;;13.75;8.80;;;;;;;13.41;41.49;100494.66;5068945;28;20049;-69
2022/03/27 09:47:08;;;;;;;11.40;8.00;;;;;;;13.72;41.34;100525.16;5068937;28;20048;-69
2022/03/27 09:49:43;;;;;;;12.10;9.85;;;;;;;13.48;41.32;100487.28;5068332;28;20041;-70
2022/03/27 09:52:18;;;;;;;11.68;8.68;;;;;;;13.45;41.25;100468.78;5068699;28;20086;-69
2022/03/27 09:54:53;;;;;;;10.73;8.50;;;;;;;13.58;41.01;100461.91;5068982;28;20087;-69
2022/03/27 09:57:27;;;;;;;;;;;;;;;13.99;41.36;100533.56;5068362;28;20244;-69
2022/03/27 10:00:18;;;;;;;11.43;9.80;;;;;;;14.01;41.50;100524.56;5068841;28;20165;-69
2022/03/27 10:02:51;;;;;;;10.95;9.05;;;;;;;13.98;41.09;100489.19;5067915;28;20119;-69
2022/03/27 10:05:23;;;;;;;11.38;8.90;;;;;;;14.44;40.42;100514.34;5068227;28;20056;-69
2022/03/27 10:07:56;;;;;;;14.40;10.23;;;;;;;14.27;40.02;100493.88;5068628;28;20125;-69
2022/03/27 10:10:29;;;;;;;12.75;8.98;;;;;;;13.89;40.44;100421.25;5068624;28;20099;-69
2022/03/27 10:13:02;;;;;;;11.07;8.98;;;;;;;14.20;39.76;100423.16;5067585;28;20178;-69
2022/03/27 10:15:35;;;;;;;11.35;8.77;;;;;;;15.22;39.22;100505.66;5068624;28;20041;-69
2022/03/27 10:18:13;;;;;;;14.23;9.82;;;;;;;15.49;38.98;100499.72;5068287;28;20047;-69
2022/03/27 10:20:51;;;;;;;12.60;9.63;;;;;;;15.60;38.54;100484.78;5068286;28;20044;-69
2022/03/27 10:23:26;;;;;;;11.43;9.20;;;;;;;15.73;38.82;100486.78;5068413;28;20292;-69
2022/03/27 10:26:05;;;;;;;12.00;8.90;;;;;;;16.04;38.43;100481.31;5068401;28;20063;-69
2022/03/27 10:28:42;;;;;;;11.40;8.88;;;;;;;16.26;37.89;100427.41;5067385;28;20196;-70
2022/03/27 10:31:23;;;;;;;11.05;9.15;;;;;;;16.72;37.10;100472.72;5068324;28;20086;-71
2022/03/27 10:34:01;;;;;;;11.27;8.30;;;;;;;16.33;36.83;100385.94;5051080;28;20048;-70
2022/03/27 10:36:47;;;;;;;19.13;14.63;;;;;;;15.10;37.06;100150.41;5050476;28;20049;-70
2022/03/27 10:39:25;;;;;;;12.05;9.20;;;;;;;17.43;36.61;100462.75;5067005;28;20045;-69
2022/03/27 10:42:08;;;;;;;13.13;10.63;;;;;;;17.28;36.13;100467.31;5068124;28;20131;-69
2022/03/27 10:44:42;;;;;;;11.23;9.15;;;;;;;17.30;36.43;100459.16;5067924;28;20297;-69
2022/03/27 10:47:19;;;;;;;10.85;8.27;;;;;;;17.34;35.99;100457.16;5066720;28;20041;-69
2022/03/27 10:50:31;;;;;;;12.75;9.02;;;;;;;17.40;35.57;100448.69;5067939;28;20064;-69
2022/03/27 10:53:08;;;;;;;9.05;8.05;;;;;;;17.23;36.13;100441.78;5062914;28;20313;-69
2022/03/27 10:55:44;;;;;;;12.02;8.27;;;;;;;17.28;36.80;100442.34;5066806;28;20362;-68
2022/03/27 10:58:28;;;;;;;11.63;8.35;;;;;;;17.50;36.24;100434.59;5068009;28;20063;-69
2022/03/27 11:01:01;;;;;;;13.13;9.00;;;;;;;17.87;35.95;100434.81;5067690;28;20041;-69
2022/03/27 11:04:04;;;;;;;9.93;8.20;;;;;;;17.91;35.13;100390.72;5066657;28;20076;-68
2022/03/27 11:06:38;;;;;;;12.63;8.98;;;;;;;17.18;35.40;100261.72;5066646;28;20104;-70
2022/03/27 11:09:13;;;;;;;8.93;7.63;;;;;;;18.21;35.55;100414.56;5067662;28;20041;-69
2022/03/27 11:12:04;;;;;;;9.18;6.80;;;;;;;18.12;34.78;100374.97;5067732;28;20350;-69
2022/03/27 11:15:12;;;;;;;8.00;6.53;;;;;;;18.51;34.41;100414.22;5067298;28;20091;-69
2022/03/27 11:17:49;;;;;;;9.48;7.78;;;;;;;18.57;34.93;100412.00;5067032;28;20083;-69
2022/03/27 11:20:59;;;;;;;11.75;8.50;;;;;;;18.72;34.29;100406.47;5066420;28;20052;-69
2022/03/27 11:23:41;;;;;;;11.23;9.18;;;;;;;18.55;34.11;100356.69;5066406;28;20041;-69
2022/03/27 11:26:35;;;;;;;7.80;7.00;;;;;;;19.00;33.84;100392.75;5067035;28;20045;-69
2022/03/27 11:29:21;;;;;;;8.57;6.40;;;;;;;18.75;33.51;100350.72;5066783;28;20087;-69
2022/03/27 11:32:08;;;;;;;9.15;6.95;;;;;;;19.01;33.81;100396.31;5066540;28;20351;-69
2022/03/27 11:34:40;;;;;;;9.50;6.75;;;;;;;19.11;34.33;100381.22;5066517;28;20047;-71
2022/03/27 11:37:22;;;;;;;8.98;6.95;;;;;;;19.12;33.52;100372.19;5066568;28;20055;-71
2022/03/27 11:39:55;;;;;;;9.23;8.03;;;;;;;18.16;34.19;100143.06;5066267;28;20047;-70
2022/03/27 11:42:33;;;;;;;10.57;9.00;;;;;;;18.86;33.85;100325.75;5066352;28;20216;-71
2022/03/27 11:45:10;;;;;;;10.40;7.47;;;;;;;19.05;34.17;100363.72;5066131;28;20041;-71
2022/03/27 11:47:45;;;;;;;8.55;7.45;;;;;;;18.18;34.24;100256.50;5066317;28;20045;-71
2022/03/27 11:50:26;;;;;;;8.93;6.70;;;;;;;19.01;33.81;100372.13;5065474;28;20236;-71
2022/03/27 11:53:02;;;;;;;8.73;6.30;;;;;;;19.20;33.65;100364.41;5065880;28;20139;-71